Time;durP1;ratioP1;P1;durP2;ratioP2;P2;SDS_P1;SDS_P2;PMS_P1;PMS_P2;Temp;Humidity;BMP_temperature;BMP_pressure;BME280_temperature;BME280_humidity;BME280_pressure;Samples;Min_cycle;Max_cycle;Signal;HPM_P1;HPM_P2
2021/06/02 00:00:45;;;;;;;8.88;5.22;;;;;;;16.50;55.08;99053.22;4937938;29;20205;-78
2021/06/02 00:03:15;;;;;;;6.22;5.63;;;;;;;16.46;54.99;99051.75;4937805;29;20295;-77
2021/06/02 00:05:42;;;;;;;6.45;5.20;;;;;;;16.41;55.18;99052.19;4938071;29;20200;-77
2021/06/02 00:08:09;;;;;;;6.82;6.18;;;;;;;16.26;55.69;99046.31;4937597;29;20572;-77
2021/06/02 00:10:35;;;;;;;6.57;5.88;;;;;;;16.46;55.12;99051.75;4937997;29;20201;-76
2021/06/02 00:13:01;;;;;;;7.35;6.05;;;;;;;16.39;55.55;99045.16;4937472;29;20268;-77
2021/06/02 00:15:28;;;;;;;7.03;5.90;;;;;;;16.36;55.65;99042.75;4938033;29;20276;-78
2021/06/02 00:17:56;;;;;;;6.75;5.40;;;;;;;16.43;55.08;99036.59;4937708;29;20296;-77
2021/06/02 00:20:22;;;;;;;5.90;5.40;;;;;;;16.40;55.11;99036.03;4937602;29;20317;-78
2021/06/02 00:22:48;;;;;;;5.85;5.03;;;;;;;16.20;55.55;99032.41;4936762;29;20272;-78
2021/06/02 00:25:14;;;;;;;6.00;5.03;;;;;;;16.14;55.84;99030.25;4937729;29;20330;-77
2021/06/02 00:27:41;;;;;;;6.20;5.70;;;;;;;16.15;55.89;99030.13;4937539;29;20623;-77
2021/06/02 00:30:10;;;;;;;6.68;6.07;;;;;;;16.07;56.22;99034.50;4938777;29;20277;-78
2021/06/02 00:32:37;;;;;;;6.32;5.32;;;;;;;15.98;56.55;99037.03;4937158;29;20296;-77
2021/06/02 00:35:06;;;;;;;5.57;5.07;;;;;;;16.08;56.45;99028.06;4937536;29;20193;-78
2021/06/02 00:37:34;;;;;;;6.88;5.80;;;;;;;15.98;56.84;99033.47;4937166;29;20198;-77
2021/06/02 00:40:01;;;;;;;5.93;5.43;;;;;;;16.17;56.59;99032.72;4952150;29;20550;-78
2021/06/02 00:42:30;;;;;;;6.70;6.10;;;;;;;15.98;56.67;99026.19;4956529;29;20272;-77
2021/06/02 00:44:57;;;;;;;6.05;5.22;;;;;;;16.16;56.51;99036.41;4956050;29;20290;-77
2021/06/02 00:47:24;;;;;;;6.78;6.07;;;;;;;16.02;56.95;99030.34;4956384;29;20619;-78
2021/06/02 00:49:51;;;;;;;6.03;5.45;;;;;;;16.14;56.95;99024.81;4956056;29;20296;-77
2021/06/02 00:52:19;;;;;;;5.82;5.35;;;;;;;16.20;57.16;99037.84;4955924;29;20200;-77
2021/06/02 00:54:45;;;;;;;7.43;6.40;;;;;;;16.22;57.34;99031.28;4946082;29;20312;-77
2021/06/02 00:57:16;;;;;;;8.25;7.22;;;;;;;16.35;57.69;99028.31;4936743;29;20294;-77
2021/06/02 00:59:43;;;;;;;7.38;6.68;;;;;;;16.29;58.47;99034.28;4936917;29;20691;-77
2021/06/02 01:02:11;;;;;;;7.85;6.75;;;;;;;16.21;59.39;99031.41;4936679;29;20202;-77
2021/06/02 01:04:38;;;;;;;8.68;6.70;;;;;;;16.27;59.58;99037.13;4936718;29;20190;-76
2021/06/02 01:07:07;;;;;;;7.40;6.70;;;;;;;15.81;58.94;99029.56;4936318;29;20240;-77
2021/06/02 01:09:35;;;;;;;6.75;5.90;;;;;;;15.52;58.87;99032.09;4936824;29;20229;-77
2021/06/02 01:12:02;;;;;;;6.90;6.30;;;;;;;15.39;59.26;99030.44;4936378;29;20233;-77
2021/06/02 01:14:30;;;;;;;9.18;5.50;;;;;;;15.20;60.08;99036.63;4941876;29;20207;-76
2021/06/02 01:16:58;;;;;;;6.22;5.63;;;;;;;15.26;60.06;99018.09;4956043;29;20266;-76
2021/06/02 01:19:24;;;;;;;6.80;5.80;;;;;;;15.23;59.99;99028.22;4955655;29;20702;-77
2021/06/02 01:21:56;;;;;;;6.75;6.05;;;;;;;15.08;60.29;99021.41;4956010;28;20216;-77
2021/06/02 01:24:25;;;;;;;7.10;6.40;;;;;;;15.07;60.29;99025.09;4956429;29;20655;-77
2021/06/02 01:26:54;;;;;;;6.70;6.03;;;;;;;15.21;59.58;99041.03;4955791;29;20212;-77
2021/06/02 01:29:20;;;;;;;6.55;5.82;;;;;;;15.42;58.68;99029.31;4955727;29;20192;-76
2021/06/02 01:32:23;;;;;;;7.70;6.38;;;;;;;15.43;58.69;99028.34;4943429;28;20291;-78
2021/06/02 01:35:06;;;;;;;6.28;5.68;;;;;;;15.37;58.79;99031.56;4933386;29;20214;-77
2021/06/02 01:38:12;;;;;;;8.30;6.10;;;;;;;15.22;59.33;99037.34;4936449;29;20231;-76
2021/06/02 01:41:07;;;;;;;8.93;5.80;;;;;;;14.91;60.54;99036.41;4936755;29;20219;-76
2021/06/02 01:44:14;;;;;;;6.50;6.00;;;;;;;14.91;61.05;99030.13;4936217;29;20196;-78
2021/06/02 01:47:01;;;;;;;6.45;5.85;;;;;;;14.67;61.88;99036.63;4936133;29;20298;-78
2021/06/02 01:49:51;;;;;;;6.85;6.20;;;;;;;14.58;61.85;99045.50;4935969;29;20626;-78
2021/06/02 01:53:11;;;;;;;6.47;5.90;;;;;;;14.55;61.98;99035.81;4949729;29;20195;-78
2021/06/02 01:56:00;;;;;;;7.05;6.35;;;;;;;14.35;62.54;99034.72;4950168;28;20613;-78
2021/06/02 01:59:01;;;;;;;6.18;5.60;;;;;;;14.39;62.70;99035.34;4914730;28;20221;-78
2021/06/02 02:02:09;;;;;;;6.05;5.47;;;;;;;14.63;61.81;99040.59;4934388;29;20226;-78
2021/06/02 02:05:10;;;;;;;6.57;5.95;;;;;;;14.76;61.29;99046.69;4886990;29;20242;-78
2021/06/02 02:08:24;;;;;;;6.60;6.00;;;;;;;14.82;60.92;99033.63;4936301;29;20545;-78
2021/06/02 02:10:54;;;;;;;6.35;5.80;;;;;;;15.10;59.69;99038.38;4901639;29;20294;-78
2021/06/02 02:13:33;;;;;;;6.38;5.82;;;;;;;15.17;59.21;99042.31;4951712;29;20196;-78
2021/06/02 02:16:20;;;;;;;6.13;5.63;;;;;;;15.21;59.21;99048.31;4943142;29;20208;-78
2021/06/02 02:18:56;;;;;;;5.80;5.30;;;;;;;14.99;59.68;99044.75;4936436;29;20189;-78
2021/06/02 02:21:43;;;;;;;7.13;5.68;;;;;;;14.94;59.94;99057.81;4935959;29;20211;-78
2021/06/02 02:24:24;;;;;;;6.07;5.47;;;;;;;14.67;60.71;99055.59;4936043;29;20199;-78
2021/06/02 02:27:00;;;;;;;6.35;5.75;;;;;;;14.37;61.93;99048.13;4935870;29;20192;-77
2021/06/02 02:29:42;;;;;;;7.60;5.88;;;;;;;14.10;63.51;99054.81;4936196;29;20274;-77
2021/06/02 02:32:36;;;;;;;7.30;6.60;;;;;;;14.22;63.51;99055.66;4936407;29;20327;-77
2021/06/02 02:35:12;;;;;;;7.75;5.40;;;;;;;14.18;63.53;99054.22;4954386;29;20229;-77
2021/06/02 02:37:46;;;;;;;10.23;7.32;;;;;;;14.24;63.38;99053.69;4955030;29;20597;-77
2021/06/02 02:40:23;;;;;;;7.68;6.55;;;;;;;14.10;63.98;99060.22;4954284;29;20261;-77
2021/06/02 02:43:00;;;;;;;6.28;5.78;;;;;;;14.33;63.21;99058.34;4955070;29;20647;-77
2021/06/02 02:45:30;;;;;;;6.47;5.88;;;;;;;14.30;63.32;99060.47;4954635;28;20270;-77
2021/06/02 02:48:09;;;;;;;8.50;6.65;;;;;;;14.55;62.27;99064.75;4955221;29;20271;-77
2021/06/02 02:50:44;;;;;;;7.40;5.82;;;;;;;14.52;62.46;99065.84;4955137;29;20501;-77
2021/06/02 02:53:18;;;;;;;10.35;6.68;;;;;;;14.30;63.54;99064.03;4955108;29;20231;-77
2021/06/02 02:55:49;;;;;;;5.78;5.25;;;;;;;14.30;63.48;99068.59;4954978;29;20243;-77
2021/06/02 02:58:22;;;;;;;7.22;6.53;;;;;;;14.12;63.83;99063.69;4950140;29;20191;-77
2021/06/02 03:00:51;;;;;;;6.93;5.97;;;;;;;13.93;64.69;99060.75;4935251;29;20222;-78
2021/06/02 03:03:24;;;;;;;7.10;6.50;;;;;;;13.62;66.21;99065.91;4935246;29;20270;-77
2021/06/02 03:06:04;;;;;;;7.75;6.40;;;;;;;13.49;66.99;99073.25;4934539;29;20197;-79
2021/06/02 03:08:36;;;;;;;9.57;5.88;;;;;;;13.59;66.93;99066.16;4934635;29;20241;-77
2021/06/02 03:11:11;;;;;;;8.30;5.85;;;;;;;13.63;66.74;99066.75;4935104;29;20192;-79
2021/06/02 03:13:44;;;;;;;7.43;6.70;;;;;;;13.91;65.65;99063.56;4935005;29;20190;-76
2021/06/02 03:16:17;;;;;;;6.70;6.07;;;;;;;13.95;65.23;99067.78;4935723;29;20285;-77
2021/06/02 03:18:48;;;;;;;6.63;6.00;;;;;;;13.96;65.16;99069.47;4935146;29;20206;-78
2021/06/02 03:21:37;;;;;;;7.93;6.43;;;;;;;14.17;64.14;99069.56;4935209;29;20306;-78
2021/06/02 03:24:17;;;;;;;7.32;6.68;;;;;;;13.94;64.84;99063.31;4935157;29;20210;-78
2021/06/02 03:26:49;;;;;;;7.28;6.03;;;;;;;13.86;65.52;99071.22;4934991;29;20243;-77
2021/06/02 03:29:37;;;;;;;6.88;6.15;;;;;;;14.01;64.90;99070.97;4936160;29;20222;-77
2021/06/02 03:32:11;;;;;;;7.63;6.82;;;;;;;13.97;65.01;99078.44;4935541;29;20195;-77
2021/06/02 03:34:44;;;;;;;8.35;6.20;;;;;;;14.00;64.89;99077.34;4935186;29;20196;-77
2021/06/02 03:37:42;;;;;;;7.32;6.63;;;;;;;13.81;65.39;99075.25;4935317;29;20310;-78
2021/06/02 03:40:44;;;;;;;7.50;6.80;;;;;;;13.83;65.65;99076.00;4934347;29;20297;-78
2021/06/02 03:43:23;;;;;;;10.02;7.18;;;;;;;13.81;66.08;99078.81;4935177;29;20245;-76
2021/06/02 03:46:04;;;;;;;8.43;7.20;;;;;;;13.89;65.86;99081.78;4935553;29;20557;-77
2021/06/02 03:48:54;;;;;;;7.60;6.50;;;;;;;14.07;64.99;99084.00;4934919;29;20380;-77
2021/06/02 03:51:37;;;;;;;7.78;6.97;;;;;;;14.20;64.55;99084.75;4935379;29;20187;-78
2021/06/02 03:54:12;;;;;;;7.55;6.85;;;;;;;14.18;64.43;99092.13;4934299;29;20723;-78
2021/06/02 03:57:02;;;;;;;11.18;8.48;;;;;;;14.16;64.94;99094.09;4935621;29;20225;-77
2021/06/02 03:59:38;;;;;;;7.80;7.10;;;;;;;14.17;64.79;99095.78;4955345;29;20198;-78
2021/06/02 04:02:18;;;;;;;9.32;6.90;;;;;;;14.42;64.65;99099.22;4957693;29;20230;-77
2021/06/02 04:05:02;;;;;;;9.57;8.52;;;;;;;14.34;64.85;99095.28;4957564;28;20195;-78
2021/06/02 04:07:39;;;;;;;8.90;7.40;;;;;;;14.31;65.33;99109.09;4957552;29;20616;-78
2021/06/02 04:10:07;;;;;;;8.20;7.40;;;;;;;14.55;64.25;99108.94;4957953;29;20675;-78
2021/06/02 04:12:41;;;;;;;18.73;10.10;;;;;;;14.69;63.79;99120.50;4956964;29;20236;-78
2021/06/02 04:15:08;;;;;;;13.18;8.38;;;;;;;14.53;64.75;99118.16;4957813;28;20195;-78
2021/06/02 04:17:37;;;;;;;9.32;8.20;;;;;;;14.76;64.41;99109.00;4957197;29;20591;-78
2021/06/02 04:20:05;;;;;;;8.65;7.72;;;;;;;14.60;64.69;99114.84;4957046;29;20247;-78
2021/06/02 04:22:33;;;;;;;11.32;8.55;;;;;;;14.85;64.30;99109.25;4956563;29;20215;-78
2021/06/02 04:25:02;;;;;;;15.52;8.13;;;;;;;14.98;63.19;99107.22;4956352;29;20194;-78
2021/06/02 04:27:30;;;;;;;14.93;9.07;;;;;;;14.82;63.29;99102.22;4956790;29;20198;-78
2021/06/02 04:30:04;;;;;;;8.13;7.35;;;;;;;14.54;64.09;99098.19;4940421;29;20202;-77
2021/06/02 04:32:39;;;;;;;12.55;8.32;;;;;;;14.48;64.23;99104.13;4941219;29;20191;-77
2021/06/02 04:35:07;;;;;;;10.80;6.80;;;;;;;14.59;63.65;99098.72;4945690;29;20189;-77
2021/06/02 04:37:35;;;;;;;8.63;6.75;;;;;;;14.73;62.65;99111.13;4955774;28;20237;-76
2021/06/02 04:40:03;;;;;;;7.22;6.53;;;;;;;14.84;62.21;99107.53;4955872;29;20214;-77
2021/06/02 04:42:30;;;;;;;8.52;7.63;;;;;;;14.94;61.79;99105.75;4956665;29;20206;-77
2021/06/02 04:44:57;;;;;;;8.82;6.82;;;;;;;14.98;61.68;99113.50;4956283;28;20196;-77
2021/06/02 04:47:25;;;;;;;10.43;7.50;;;;;;;15.34;60.60;99122.22;4956136;29;20211;-75
2021/06/02 04:50:06;;;;;;;8.20;7.40;;;;;;;15.77;58.97;99118.53;4956383;29;20187;-76
2021/06/02 04:53:01;;;;;;;8.45;7.63;;;;;;;15.98;58.17;99104.94;4944721;29;20230;-76
2021/06/02 04:55:48;;;;;;;8.57;7.68;;;;;;;16.24;57.40;99113.47;4936887;29;20242;-76
2021/06/02 04:58:50;;;;;;;9.77;7.38;;;;;;;16.63;55.29;99115.47;4936216;29;20232;-76
2021/06/02 05:01:53;;;;;;;9.93;7.07;;;;;;;16.83;54.47;99119.97;4936434;29;20212;-76
2021/06/02 05:04:58;;;;;;;9.60;7.30;;;;;;;17.01;53.84;99116.56;4936784;29;20727;-76
2021/06/02 05:08:03;;;;;;;9.90;9.00;;;;;;;17.24;53.61;99115.28;4942663;28;20216;-76
2021/06/02 05:11:08;;;;;;;8.93;6.88;;;;;;;17.68;51.91;99122.94;4951565;29;20185;-77
2021/06/02 05:14:16;;;;;;;7.70;6.70;;;;;;;17.85;51.46;99122.25;4936392;29;20276;-78
2021/06/02 05:17:02;;;;;;;9.38;6.68;;;;;;;17.93;51.18;99121.50;4955493;29;20199;-76
2021/06/02 05:20:19;;;;;;;6.90;6.25;;;;;;;17.71;51.80;99125.41;4939580;29;20263;-77
2021/06/02 05:23:37;;;;;;;12.00;10.70;;;;;;;17.95;51.10;99132.25;4955886;29;20190;-77
2021/06/02 05:26:47;;;;;;;11.95;7.03;;;;;;;17.86;50.81;99128.53;4955120;28;20231;-78
2021/06/02 05:29:51;;;;;;;6.75;6.05;;;;;;;17.53;51.77;99122.56;4955389;28;20243;-75
2021/06/02 05:32:47;;;;;;;7.00;6.30;;;;;;;17.45;52.34;99119.69;4954741;28;20276;-77
2021/06/02 05:35:52;;;;;;;7.10;5.85;;;;;;;17.24;52.87;99126.16;4951051;29;20209;-76
2021/06/02 05:38:49;;;;;;;11.20;6.70;;;;;;;17.12;53.99;99121.88;4935214;29;20231;-76
2021/06/02 05:41:33;;;;;;;12.68;9.23;;;;;;;17.13;54.43;99128.16;4935401;29;20299;-77
2021/06/02 05:44:36;;;;;;;8.73;7.82;;;;;;;17.49;53.57;99127.44;4951817;29;20201;-78
2021/06/02 05:47:44;;;;;;;10.90;7.28;;;;;;;17.80;52.69;99135.41;4955218;29;20547;-78
2021/06/02 05:50:53;;;;;;;9.63;7.70;;;;;;;17.97;52.36;99130.25;4920876;28;20293;-78
2021/06/02 05:53:47;;;;;;;8.40;7.60;;;;;;;18.13;52.04;99125.00;4933654;29;20616;-77
2021/06/02 05:56:59;;;;;;;8.02;7.32;;;;;;;18.27;51.04;99130.00;4955297;28;20200;-77
2021/06/02 05:59:45;;;;;;;13.15;10.82;;;;;;;18.39;50.39;99127.94;4948403;29;20286;-78
2021/06/02 06:03:03;;;;;;;11.75;7.75;;;;;;;18.44;50.31;99130.19;4948698;29;20235;-78
2021/06/02 06:05:43;;;;;;;11.50;7.63;;;;;;;18.60;49.72;99132.28;4944691;29;20304;-78
2021/06/02 06:08:55;;;;;;;8.82;7.45;;;;;;;18.61;50.19;99136.69;4954692;29;20328;-78
2021/06/02 06:12:01;;;;;;;9.27;7.30;;;;;;;18.77;49.67;99123.31;4954850;29;20229;-77
2021/06/02 06:15:08;;;;;;;8.50;7.70;;;;;;;19.02;48.95;99126.31;4954977;29;20288;-77
2021/06/02 06:17:53;;;;;;;14.77;8.70;;;;;;;19.19;48.94;99127.31;4955163;29;20202;-77
2021/06/02 06:20:33;;;;;;;10.25;7.57;;;;;;;19.23;48.48;99134.19;4954526;28;20216;-77
2021/06/02 06:23:19;;;;;;;12.63;7.38;;;;;;;19.33;48.28;99116.72;4954514;29;20198;-77
2021/06/02 06:25:52;;;;;;;7.68;5.75;;;;;;;19.56;47.75;99125.28;4954396;29;20236;-78
2021/06/02 06:28:29;;;;;;;9.32;6.90;;;;;;;19.51;47.70;99133.06;4954951;29;20303;-78
2021/06/02 06:30:56;;;;;;;7.75;6.50;;;;;;;19.63;47.13;99130.09;4954707;29;20242;-77
2021/06/02 06:33:27;;;;;;;6.72;5.82;;;;;;;19.78;46.82;99134.84;4954387;29;20202;-77
2021/06/02 06:35:55;;;;;;;7.40;5.88;;;;;;;20.00;46.54;99140.81;4954686;29;20192;-78
2021/06/02 06:38:29;;;;;;;10.30;5.95;;;;;;;20.14;46.31;99134.75;4954792;28;20191;-78
2021/06/02 06:40:58;;;;;;;7.55;6.03;;;;;;;20.26;45.73;99135.34;4954629;29;20551;-78
2021/06/02 06:43:26;;;;;;;7.07;6.38;;;;;;;20.39;45.57;99135.72;4954480;29;20218;-77
2021/06/02 06:45:57;;;;;;;8.88;6.18;;;;;;;20.31;45.48;99130.25;4953977;29;20207;-78
2021/06/02 06:48:25;;;;;;;13.40;10.77;;;;;;;20.31;45.76;99132.13;4955030;28;20323;-78
2021/06/02 06:50:55;;;;;;;10.23;7.53;;;;;;;20.58;45.50;99136.56;4954581;29;20479;-78
2021/06/02 06:53:22;;;;;;;8.20;6.50;;;;;;;20.82;44.76;99138.50;4943859;29;20471;-77
2021/06/02 06:55:52;;;;;;;7.32;5.45;;;;;;;21.00;44.21;99139.25;4943698;29;20594;-76
2021/06/02 06:58:20;;;;;;;9.93;5.90;;;;;;;20.75;44.21;99145.66;4953609;29;20216;-76
2021/06/02 07:00:46;;;;;;;5.73;5.23;;;;;;;20.63;44.47;99130.59;4944425;29;20636;-77
2021/06/02 07:03:15;;;;;;;6.97;6.22;;;;;;;20.62;44.35;99135.19;4934311;29;20479;-76
2021/06/02 07:05:44;;;;;;;7.63;6.80;;;;;;;20.94;43.67;99128.09;4934820;29;20247;-76
2021/06/02 07:08:12;;;;;;;10.32;6.55;;;;;;;21.29;42.66;99139.81;4934875;29;20437;-76
2021/06/02 07:10:38;;;;;;;7.35;4.18;;;;;;;21.50;41.55;99144.81;4934304;29;20205;-77
2021/06/02 07:13:08;;;;;;;8.20;4.40;;;;;;;21.70;41.23;99151.69;4934240;29;20229;-76
2021/06/02 07:15:36;;;;;;;6.53;5.13;;;;;;;21.92;40.62;99149.28;4934989;29;20429;-77
2021/06/02 07:18:03;;;;;;;4.40;3.90;;;;;;;22.05;40.22;99155.09;4933918;29;20445;-77
2021/06/02 07:20:30;;;;;;;5.63;5.00;;;;;;;21.89;40.78;99158.72;4934323;29;20473;-76
2021/06/02 07:22:57;;;;;;;6.83;4.53;;;;;;;22.11;40.41;99151.63;4935704;29;20563;-76
2021/06/02 07:25:25;;;;;;;6.90;4.47;;;;;;;22.29;40.17;99165.16;4934295;29;20535;-77
2021/06/02 07:27:54;;;;;;;5.67;5.13;;;;;;;22.35;39.87;99159.00;4934643;29;20911;-77
2021/06/02 07:30:22;;;;;;;6.13;4.53;;;;;;;22.37;40.10;99156.09;4934521;29;20448;-77
2021/06/02 07:32:50;;;;;;;5.43;4.87;;;;;;;22.43;40.11;99160.84;4936883;29;20453;-77
2021/06/02 07:35:16;;;;;;;5.83;4.20;;;;;;;22.45;40.17;99153.28;4937807;29;20437;-77
2021/06/02 07:37:42;;;;;;;10.13;5.83;;;;;;;22.72;40.22;99154.72;4939584;29;20925;-77
2021/06/02 07:40:09;;;;;;;6.23;4.50;;;;;;;22.89;39.74;99150.88;4953427;29;20448;-77
2021/06/02 07:42:36;;;;;;;5.87;5.00;;;;;;;22.79;39.86;99152.13;4956501;29;20816;-78
2021/06/02 07:45:03;;;;;;;5.50;4.70;;;;;;;22.99;39.59;99145.19;4956765;28;20579;-77
2021/06/02 07:47:29;;;;;;;8.00;4.60;;;;;;;23.21;39.36;99153.66;4954936;29;20437;-75
2021/06/02 07:49:57;;;;;;;4.70;4.17;;;;;;;23.29;39.94;99156.34;4937457;29;20520;-77
2021/06/02 07:52:23;;;;;;;5.13;4.10;;;;;;;23.48;39.37;99155.88;4937664;29;20496;-77
2021/06/02 07:54:49;;;;;;;8.67;4.90;;;;;;;23.73;39.48;99158.44;4941754;29;20523;-77
2021/06/02 07:57:15;;;;;;;4.87;4.37;;;;;;;23.41;40.23;99152.16;4937330;29;20437;-78
2021/06/02 07:59:41;;;;;;;5.50;4.10;;;;;;;23.23;41.03;99146.94;4955843;29;20444;-77
2021/06/02 08:02:08;;;;;;;8.13;5.00;;;;;;;23.53;40.26;99147.09;4939756;29;20576;-77
2021/06/02 08:04:34;;;;;;;4.63;4.07;;;;;;;23.77;40.21;99151.56;4937794;29;20549;-76
2021/06/02 08:07:03;;;;;;;6.87;4.20;;;;;;;23.93;39.94;99148.66;4937225;29;20552;-76
2021/06/02 08:09:29;;;;;;;4.90;4.50;;;;;;;23.98;40.12;99147.25;4937091;29;20463;-77
2021/06/02 08:11:56;;;;;;;6.47;5.00;;;;;;;24.22;39.50;99147.00;4937260;29;20592;-77
2021/06/02 08:14:22;;;;;;;7.00;5.53;;;;;;;24.38;39.62;99150.59;4937412;29;20554;-77
2021/06/02 08:16:48;;;;;;;5.90;4.77;;;;;;;24.41;39.63;99150.25;4950786;29;20523;-77
2021/06/02 08:19:14;;;;;;;4.87;4.40;;;;;;;24.36;39.97;99153.56;4952850;29;20436;-78
2021/06/02 08:21:40;;;;;;;6.10;4.77;;;;;;;24.61;39.55;99151.41;4956502;29;20479;-78
2021/06/02 08:24:08;;;;;;;4.97;4.47;;;;;;;24.53;39.88;99149.63;4956168;29;20451;-79
2021/06/02 08:26:35;;;;;;;5.07;4.50;;;;;;;24.41;39.93;99153.00;4956266;28;20440;-78
2021/06/02 08:29:02;;;;;;;6.57;4.57;;;;;;;24.63;39.84;99153.97;4956439;28;20835;-78
2021/06/02 08:31:28;;;;;;;8.33;4.83;;;;;;;24.69;40.01;99153.19;4956519;28;20442;-77
2021/06/02 08:33:55;;;;;;;7.47;5.67;;;;;;;24.57;40.52;99157.47;4955307;28;20432;-77
2021/06/02 08:36:21;;;;;;;5.50;4.23;;;;;;;24.61;41.29;99162.41;4955836;29;20516;-75
2021/06/02 08:38:47;;;;;;;9.00;4.30;;;;;;;24.78;41.21;99163.06;4956465;28;20855;-78
2021/06/02 08:41:15;;;;;;;7.07;4.70;;;;;;;24.80;41.20;99163.72;4955942;28;20483;-76
2021/06/02 08:43:44;;;;;;;6.43;5.10;;;;;;;24.81;41.33;99162.69;4955593;28;20421;-78
2021/06/02 08:46:10;;;;;;;5.00;4.50;;;;;;;24.88;42.16;99160.03;4955978;28;20622;-77
2021/06/02 08:48:37;;;;;;;4.70;4.13;;;;;;;24.34;43.91;99173.00;4956058;28;20428;-78
2021/06/02 08:51:04;;;;;;;4.63;4.23;;;;;;;24.53;43.54;99157.00;4955427;28;20492;-76
2021/06/02 08:53:31;;;;;;;4.97;4.47;;;;;;;24.30;44.07;99165.31;4955297;28;20454;-76
2021/06/02 08:55:57;;;;;;;5.90;4.57;;;;;;;24.32;44.36;99158.56;4955729;28;20894;-76
2021/06/02 08:58:24;;;;;;;5.80;4.90;;;;;;;24.57;44.05;99165.75;4955777;28;20457;-76
2021/06/02 09:00:50;;;;;;;6.43;5.07;;;;;;;24.68;43.83;99157.00;4955578;28;20903;-75
2021/06/02 09:03:17;;;;;;;5.73;4.80;;;;;;;24.84;43.58;99165.03;4955220;28;20508;-78
2021/06/02 09:05:43;;;;;;;4.90;4.47;;;;;;;24.73;43.78;99168.28;4955385;28;20847;-78
2021/06/02 09:08:15;;;;;;;4.83;4.40;;;;;;;24.89;43.87;99167.22;4955103;28;20464;-77
2021/06/02 09:10:43;;;;;;;6.17;3.97;;;;;;;25.25;43.17;99167.28;4955557;29;20471;-77
2021/06/02 09:13:21;;;;;;;6.10;4.40;;;;;;;25.33;42.90;99169.06;4945010;29;20473;-78
2021/06/02 09:15:51;;;;;;;7.53;4.77;;;;;;;25.40;42.90;99166.41;4946335;29;20472;-78
2021/06/02 09:18:19;;;;;;;14.53;4.73;;;;;;;25.50;42.82;99173.25;4947969;29;20484;-78
2021/06/02 09:20:47;;;;;;;5.73;5.20;;;;;;;25.51;42.85;99175.00;4955474;29;21021;-79
2021/06/02 09:23:32;;;;;;;8.57;4.87;;;;;;;25.78;42.46;99170.59;4955145;29;20448;-78
2021/06/02 09:26:17;;;;;;;7.73;4.70;;;;;;;25.93;42.06;99161.41;4955397;29;20444;-78
2021/06/02 09:28:48;;;;;;;5.60;4.83;;;;;;;25.86;42.29;99168.75;4954999;28;20456;-77
2021/06/02 09:31:27;;;;;;;7.90;4.87;;;;;;;25.64;42.60;99163.22;4954383;28;20955;-78
2021/06/02 09:33:54;;;;;;;5.97;4.40;;;;;;;25.65;42.66;99162.19;4955067;29;20436;-78
2021/06/02 09:36:32;;;;;;;8.33;5.20;;;;;;;26.05;41.97;99158.94;4955148;29;20440;-78
2021/06/02 09:39:00;;;;;;;4.87;4.47;;;;;;;26.06;42.00;99166.19;4955269;29;20428;-78
2021/06/02 09:41:29;;;;;;;5.27;4.77;;;;;;;26.35;41.65;99160.47;4954360;29;20568;-78
2021/06/02 09:43:56;;;;;;;5.23;4.73;;;;;;;26.31;41.86;99164.69;4945384;29;20441;-79
2021/06/02 09:46:24;;;;;;;7.00;6.17;;;;;;;26.42;41.41;99158.59;4954252;29;20495;-78
2021/06/02 09:49:01;;;;;;;6.47;5.33;;;;;;;26.44;41.76;99171.34;4954717;29;20448;-78
2021/06/02 09:51:33;;;;;;;6.27;4.37;;;;;;;26.31;42.41;99172.09;4955395;29;20417;-78
2021/06/02 09:54:00;;;;;;;6.53;5.53;;;;;;;26.35;42.30;99171.50;4954187;28;20515;-78
2021/06/02 09:56:36;;;;;;;6.77;4.30;;;;;;;26.27;42.48;99173.56;4954653;28;20486;-78
2021/06/02 09:59:04;;;;;;;7.33;4.70;;;;;;;26.04;43.11;99165.53;4954726;29;20531;-78
2021/06/02 10:02:00;;;;;;;7.70;6.07;;;;;;;26.24;42.92;99162.94;4954583;29;20555;-79
2021/06/02 10:04:33;;;;;;;6.20;4.40;;;;;;;26.24;42.84;99162.94;4952451;28;20456;-78
2021/06/02 10:07:00;;;;;;;4.83;4.23;;;;;;;26.18;43.40;99164.56;4948364;29;20767;-78
2021/06/02 10:09:27;;;;;;;5.97;4.70;;;;;;;26.10;43.71;99168.34;4935468;29;20482;-78
2021/06/02 10:11:58;;;;;;;4.90;4.50;;;;;;;26.19;43.54;99171.81;4935053;29;20473;-78
2021/06/02 10:14:24;;;;;;;6.63;4.97;;;;;;;26.40;43.25;99166.22;4943307;29;20447;-78
2021/06/02 10:16:50;;;;;;;5.80;4.37;;;;;;;26.08;44.10;99173.22;4949663;29;20973;-79
2021/06/02 10:19:34;;;;;;;5.00;4.57;;;;;;;26.30;43.63;99176.78;4942261;29;20469;-78
2021/06/02 10:22:03;;;;;;;5.20;4.70;;;;;;;26.27;44.08;99174.41;4935260;29;20480;-78
2021/06/02 10:24:30;;;;;;;4.60;4.20;;;;;;;26.26;43.76;99177.38;4935496;29;20927;-78
2021/06/02 10:26:57;;;;;;;5.70;5.03;;;;;;;26.33;43.84;99178.28;4935438;29;20516;-78
2021/06/02 10:29:24;;;;;;;7.40;4.70;;;;;;;26.37;43.90;99163.88;4935998;29;20480;-78
2021/06/02 10:31:50;;;;;;;5.10;4.60;;;;;;;26.45;43.32;99159.25;4935153;29;20433;-78
2021/06/02 10:34:16;;;;;;;5.00;4.50;;;;;;;26.30;43.58;99156.59;4935300;29;20841;-78
2021/06/02 10:36:43;;;;;;;5.90;4.37;;;;;;;26.49;43.24;99161.41;4945851;29;20563;-78
2021/06/02 10:39:13;;;;;;;5.60;4.27;;;;;;;26.74;42.67;99155.41;4954118;29;20436;-78
2021/06/02 10:41:43;;;;;;;4.73;4.23;;;;;;;26.81;42.82;99164.59;4954332;29;20980;-79
2021/06/02 10:44:12;;;;;;;6.07;4.10;;;;;;;26.71;42.57;99173.25;4953362;28;20452;-78
2021/06/02 10:46:43;;;;;;;6.30;4.87;;;;;;;26.86;42.32;99155.69;4954089;29;20928;-79
2021/06/02 10:49:09;;;;;;;4.47;4.03;;;;;;;26.82;42.64;99161.63;4953836;29;20970;-78
2021/06/02 10:51:49;;;;;;;4.50;4.10;;;;;;;26.69;42.75;99169.00;4955519;28;20500;-78
2021/06/02 10:54:19;;;;;;;5.50;4.13;;;;;;;26.69;42.27;99158.78;4938974;29;20456;-77
2021/06/02 10:57:13;;;;;;;6.53;4.47;;;;;;;26.67;42.76;99149.84;4938405;29;20462;-78
2021/06/02 10:59:41;;;;;;;5.33;4.93;;;;;;;26.66;42.69;99147.28;4948531;29;20935;-77
2021/06/02 11:02:12;;;;;;;4.93;4.53;;;;;;;26.87;42.64;99136.16;4940397;29;20481;-78
2021/06/02 11:04:39;;;;;;;8.17;4.50;;;;;;;27.10;42.75;99146.84;4938597;29;20473;-77
2021/06/02 11:07:20;;;;;;;4.10;3.70;;;;;;;27.09;42.50;99139.63;4938949;29;20901;-76
2021/06/02 11:09:58;;;;;;;8.00;5.27;;;;;;;27.15;42.20;99135.19;4946652;29;20504;-76
2021/06/02 11:12:28;;;;;;;10.40;6.23;;;;;;;27.19;41.92;99142.00;4963401;29;20483;-78
2021/06/02 11:14:55;;;;;;;4.90;4.40;;;;;;;27.30;41.12;99148.88;4958684;29;20440;-78
2021/06/02 11:17:23;;;;;;;6.03;4.03;;;;;;;27.24;41.03;99143.09;4946159;29;20484;-77
2021/06/02 11:19:54;;;;;;;4.57;4.17;;;;;;;27.25;41.82;99135.69;4966886;29;20428;-77
2021/06/02 11:22:23;;;;;;;5.50;4.80;;;;;;;27.43;41.37;99135.09;4964579;28;20475;-78
2021/06/02 11:25:00;;;;;;;6.00;5.40;;;;;;;27.44;41.31;99139.53;4963529;28;20479;-78
2021/06/02 11:27:41;;;;;;;5.33;4.33;;;;;;;27.02;42.66;99144.25;4957731;28;20515;-78
2021/06/02 11:30:26;;;;;;;4.90;4.50;;;;;;;26.93;43.08;99143.63;4956126;29;20452;-78
2021/06/02 11:32:59;;;;;;;6.97;5.13;;;;;;;27.07;42.99;99141.75;4957185;28;20456;-78
2021/06/02 11:36:06;;;;;;;5.83;4.63;;;;;;;27.36;41.94;99139.72;4957087;28;20451;-78
2021/06/02 11:38:34;;;;;;;3.80;3.50;;;;;;;27.45;41.22;99139.34;4935691;29;20451;-78
2021/06/02 11:41:01;;;;;;;4.40;4.03;;;;;;;27.42;41.58;99144.44;4952959;28;20488;-78
2021/06/02 11:43:27;;;;;;;4.43;3.97;;;;;;;27.59;41.36;99144.91;4957154;29;20499;-78
2021/06/02 11:45:56;;;;;;;4.67;4.30;;;;;;;27.64;41.12;99145.09;4951604;29;20448;-78
2021/06/02 11:48:25;;;;;;;5.17;4.57;;;;;;;27.56;41.18;99140.63;4957314;28;20814;-78
2021/06/02 11:50:52;;;;;;;5.60;4.30;;;;;;;27.52;41.12;99144.00;4957386;29;20571;-79
2021/06/02 11:53:18;;;;;;;6.40;5.30;;;;;;;27.71;40.69;99150.66;4957493;29;20761;-79
2021/06/02 11:55:44;;;;;;;5.57;4.57;;;;;;;27.82;40.41;99155.56;4957418;29;20586;-79
2021/06/02 11:58:12;;;;;;;5.27;3.80;;;;;;;27.84;39.92;99154.31;4957094;28;20898;-79
2021/06/02 12:00:38;;;;;;;6.00;4.03;;;;;;;27.92;39.70;99156.00;4956110;29;20518;-78
2021/06/02 12:03:06;;;;;;;7.10;4.10;;;;;;;28.30;38.90;99158.13;4956745;29;20494;-78
2021/06/02 12:05:34;;;;;;;5.67;3.60;;;;;;;28.53;38.09;99157.69;4956363;29;20439;-78
2021/06/02 12:08:01;;;;;;;5.50;4.37;;;;;;;28.65;37.34;99152.31;4956375;29;20514;-78
2021/06/02 12:10:30;;;;;;;4.40;3.70;;;;;;;28.61;37.61;99164.91;4956823;29;20463;-78